Map

Track Data

SID SEASON NUMBER BASIN SUBBASIN NAME ISO_TIME NATURE LAT LON WMO_WIND WMO_PRES WMO_AGENCY TRACK_TYPE DIST2LAND LANDFALL IFLAG USA_AGENCY USA_ATCF_ID USA_LAT USA_LON USA_RECORD USA_STATUS USA_WIND USA_PRES USA_SSHS USA_R34_NE USA_R34_SE USA_R34_SW USA_R34_NW USA_R50_NE USA_R50_SE USA_R50_SW USA_R50_NW USA_R64_NE USA_R64_SE USA_R64_SW USA_R64_NW USA_POCI USA_ROCI USA_RMW USA_EYE TOKYO_LAT TOKYO_LON TOKYO_GRADE TOKYO_WIND TOKYO_PRES TOKYO_R50_DIR TOKYO_R50_LONG TOKYO_R50_SHORT TOKYO_R30_DIR TOKYO_R30_LONG TOKYO_R30_SHORT TOKYO_LAND CMA_LAT CMA_LON CMA_CAT CMA_WIND CMA_PRES HKO_LAT HKO_LON HKO_CAT HKO_WIND HKO_PRES NEWDELHI_LAT NEWDELHI_LON NEWDELHI_GRADE NEWDELHI_WIND NEWDELHI_PRES NEWDELHI_CI NEWDELHI_DP NEWDELHI_POCI REUNION_LAT REUNION_LON REUNION_TYPE REUNION_WIND REUNION_PRES REUNION_TNUM REUNION_CI REUNION_RMW REUNION_R34_NE REUNION_R34_SE REUNION_R34_SW REUNION_R34_NW REUNION_R50_NE REUNION_R50_SE REUNION_R50_SW REUNION_R50_NW REUNION_R64_NE REUNION_R64_SE REUNION_R64_SW REUNION_R64_NW BOM_LAT BOM_LON BOM_TYPE BOM_WIND BOM_PRES BOM_TNUM BOM_CI BOM_RMW BOM_R34_NE BOM_R34_SE BOM_R34_SW BOM_R34_NW BOM_R50_NE BOM_R50_SE BOM_R50_SW BOM_R50_NW BOM_R64_NE BOM_R64_SE BOM_R64_SW BOM_R64_NW BOM_ROCI BOM_POCI BOM_EYE BOM_POS_METHOD BOM_PRES_METHOD NADI_LAT NADI_LON NADI_CAT NADI_WIND NADI_PRES WELLINGTON_LAT WELLINGTON_LON WELLINGTON_WIND WELLINGTON_PRES DS824_LAT DS824_LON DS824_STAGE DS824_WIND DS824_PRES TD9636_LAT TD9636_LON TD9636_STAGE TD9636_WIND TD9636_PRES TD9635_LAT TD9635_LON TD9635_WIND TD9635_PRES TD9635_ROCI NEUMANN_LAT NEUMANN_LON NEUMANN_CLASS NEUMANN_WIND NEUMANN_PRES MLC_LAT MLC_LON MLC_CLASS MLC_WIND MLC_PRES USA_GUST BOM_GUST BOM_GUST_PER REUNION_GUST REUNION_GUST_PER USA_SEAHGT USA_SEARAD_NE USA_SEARAD_SE USA_SEARAD_SW USA_SEARAD_NW STORM_SPEED STORM_DIR
1876001S17061 1876 1 SI MM NOT_NAMED 1876-01-01 06:00:00 NR -16.6000 61.0000 reunion main 524 517 _____O________ -1 -16.6000 61.0000 99 9.90000 2 236
1876001S17061 1876 1 SI MM NOT_NAMED 1876-01-01 09:00:00 NR -16.6500 60.9292 main 517 508 _____P________ -1 -16.6500 60.9292 99 2 234
1876001S17061 1876 1 SI MM NOT_NAMED 1876-01-01 12:00:00 NR -16.7011 60.8544 main 508 493 _____P________ -1 -16.7011 60.8544 99 2 236
1876001S17061 1876 1 SI MM NOT_NAMED 1876-01-01 15:00:00 NR -16.7547 60.7717 main 493 486 _____P________ -1 -16.7547 60.7717 99 2 237
1876001S17061 1876 1 SI MM NOT_NAMED 1876-01-01 18:00:00 NR -16.8118 60.6770 main 486 470 _____P________ -1 -16.8118 60.6770 99 2 239
1876001S17061 1876 1 SI MM NOT_NAMED 1876-01-01 21:00:00 NR -16.8737 60.5665 main 470 457 _____P________ -1 -16.8737 60.5665 99 3 241
1876001S17061 1876 1 SI MM NOT_NAMED 1876-01-02 00:00:00 NR -16.9416 60.4362 main 457 442 _____P________ -1 -16.9416 60.4362 99 3 242
1876001S17061 1876 1 SI MM NOT_NAMED 1876-01-02 03:00:00 NR -17.0167 60.2820 main 442 420 _____P________ -1 -17.0167 60.2820 99 4 244
1876001S17061 1876 1 SI MM NOT_NAMED 1876-01-02 06:00:00 NR -17.1000 60.1000 reunion main 420 398 _____O________ -1 -17.1000 60.1000 99 9.90000 4 245
1876001S17061 1876 1 SI MM NOT_NAMED 1876-01-02 09:00:00 NR -17.1923 59.8877 main 398 377 _____P________ -1 -17.1923 59.8877 99 5 246
1876001S17061 1876 1 SI MM NOT_NAMED 1876-01-02 12:00:00 NR -17.2929 59.6494 main 371 351 _____P________ -1 -17.2929 59.6494 99 5 246
1876001S17061 1876 1 SI MM NOT_NAMED 1876-01-02 15:00:00 NR -17.4003 59.3908 main 351 326 _____P________ -1 -17.4003 59.3908 99 6 246
1876001S17061 1876 1 SI MM NOT_NAMED 1876-01-02 18:00:00 NR -17.5134 59.1179 main 326 306 _____P________ -1 -17.5134 59.1179 99 6 246
1876001S17061 1876 1 SI MM NOT_NAMED 1876-01-02 21:00:00 NR -17.6311 58.8365 main 302 284 _____P________ -1 -17.6311 58.8365 99 6 246
1876001S17061 1876 1 SI MM NOT_NAMED 1876-01-03 00:00:00 NR -17.7522 58.5524 main 274 254 _____P________ -1 -17.7522 58.5524 99 6 246
1876001S17061 1876 1 SI MM NOT_NAMED 1876-01-03 03:00:00 NR -17.8755 58.2716 main 254 237 _____P________ -1 -17.8755 58.2716 99 6 245
1876001S17061 1876 1 SI MM NOT_NAMED 1876-01-03 06:00:00 NR -18.0000 58.0000 reunion main 237 223 _____O________ -1 -18.0000 58.0000 99 9.90000 5 244
1876001S17061 1876 1 SI MM NOT_NAMED 1876-01-03 09:00:00 NR -18.1065 57.7681 main 223 212 _____P________ -1 -18.1065 57.7681 99 5 244
1876001S17061 1876 1 SI MM NOT_NAMED 1876-01-03 12:00:00 NR -18.2135 57.5434 main 212 201 _____P________ -1 -18.2135 57.5434 99 5 243
1876001S17061 1876 1 SI MM NOT_NAMED 1876-01-03 15:00:00 NR -18.3235 57.3235 main 202 191 _____P________ -1 -18.3235 57.3235 99 5 241
1876001S17061 1876 1 SI MM NOT_NAMED 1876-01-03 18:00:00 NR -18.4388 57.1056 main 194 179 _____P________ -1 -18.4388 57.1056 99 5 240
1876001S17061 1876 1 SI MM NOT_NAMED 1876-01-03 21:00:00 NR -18.5618 56.8870 main 179 177 _____P________ -1 -18.5618 56.8870 99 5 238
1876001S17061 1876 1 SI MM NOT_NAMED 1876-01-04 00:00:00 NR -18.6947 56.6650 main 177 173 _____P________ -1 -18.6947 56.6650 99 5 237
1876001S17061 1876 1 SI MM NOT_NAMED 1876-01-04 03:00:00 NR -18.8400 56.4370 main 185 175 _____P________ -1 -18.8400 56.4370 99 5 235
1876001S17061 1876 1 SI MM NOT_NAMED 1876-01-04 06:00:00 NR -19.0000 56.2000 reunion main 183 183 _____O________ -1 -19.0000 56.2000 99 9.90000 6 234
1876001S17061 1876 1 SI MM NOT_NAMED 1876-01-04 09:00:00 NR -19.1762 55.9521 main 186 178 _____P________ -1 -19.1762 55.9521 99 6 232
1876001S17061 1876 1 SI MM NOT_NAMED 1876-01-04 12:00:00 NR -19.3671 55.6938 main 178 156 _____P________ -1 -19.3671 55.6938 99 6 231
1876001S17061 1876 1 SI MM NOT_NAMED 1876-01-04 15:00:00 NR -19.5706 55.4264 main 156 134 _____P________ -1 -19.5706 55.4264 99 7 231
1876001S17061 1876 1 SI MM NOT_NAMED 1876-01-04 18:00:00 NR -19.7845 55.1512 main 134 119 _____P________ -1 -19.7845 55.1512 99 7 230
1876001S17061 1876 1 SI MM NOT_NAMED 1876-01-04 21:00:00 NR -20.0066 54.8696 main 119 109 _____P________ -1 -20.0066 54.8696 99 7 230
1876001S17061 1876 1 SI MM NOT_NAMED 1876-01-05 00:00:00 NR -20.2346 54.5830 main 115 106 _____P________ -1 -20.2346 54.5830 99 7 230
1876001S17061 1876 1 SI MM NOT_NAMED 1876-01-05 03:00:00 NR -20.4665 54.2926 main 115 115 _____P________ -1 -20.4665 54.2926 99 7 230
1876001S17061 1876 1 SI MM NOT_NAMED 1876-01-05 06:00:00 NR -20.7000 54.0000 reunion main 132 _____O________ -1 -20.7000 54.0000 99 9.90000 7 230

About IBTrACS Database

This database is a web-friendly format of International Best Track Archive for Climate Stewardship (IBTrACS), a global best track data archive curated by NOAA dating back to 1842.

Updated: 2021-10-21